sensor_id;sensor_type;location;lat;lon;timestamp;P1;durP1;ratioP1;P2;durP2;ratioP2
75820;SDS011;64454;51.984;9.838;2022-12-10T00:01:48;74.38;;;27.67;;
75820;SDS011;64454;51.984;9.838;2022-12-10T00:04:18;65.90;;;26.98;;
75820;SDS011;64454;51.984;9.838;2022-12-10T00:06:45;72.30;;;28.35;;
75820;SDS011;64454;51.984;9.838;2022-12-10T00:09:16;70.13;;;27.80;;
75820;SDS011;64454;51.984;9.838;2022-12-10T00:11:46;61.92;;;26.92;;
75820;SDS011;64454;51.984;9.838;2022-12-10T00:14:14;57.63;;;26.02;;
75820;SDS011;64454;51.984;9.838;2022-12-10T00:16:41;68.70;;;27.00;;
75820;SDS011;64454;51.984;9.838;2022-12-10T00:19:08;58.60;;;25.00;;
75820;SDS011;64454;51.984;9.838;2022-12-10T00:21:36;74.57;;;27.90;;
75820;SDS011;64454;51.984;9.838;2022-12-10T00:24:03;64.30;;;26.17;;
75820;SDS011;64454;51.984;9.838;2022-12-10T00:26:32;71.75;;;27.17;;
75820;SDS011;64454;51.984;9.838;2022-12-10T00:29:04;68.45;;;26.88;;
75820;SDS011;64454;51.984;9.838;2022-12-10T00:31:34;62.40;;;26.40;;
75820;SDS011;64454;51.984;9.838;2022-12-10T00:34:03;69.05;;;26.73;;
75820;SDS011;64454;51.984;9.838;2022-12-10T00:36:33;69.68;;;27.08;;
75820;SDS011;64454;51.984;9.838;2022-12-10T00:39:04;133.90;;;28.93;;
75820;SDS011;64454;51.984;9.838;2022-12-10T00:41:32;73.88;;;28.75;;
75820;SDS011;64454;51.984;9.838;2022-12-10T00:43:59;80.68;;;29.52;;
75820;SDS011;64454;51.984;9.838;2022-12-10T00:46:27;78.80;;;29.40;;
75820;SDS011;64454;51.984;9.838;2022-12-10T00:48:54;81.50;;;30.50;;
75820;SDS011;64454;51.984;9.838;2022-12-10T00:51:22;74.40;;;27.65;;
75820;SDS011;64454;51.984;9.838;2022-12-10T00:53:51;73.47;;;27.90;;
75820;SDS011;64454;51.984;9.838;2022-12-10T00:56:21;70.03;;;27.23;;
75820;SDS011;64454;51.984;9.838;2022-12-10T00:58:51;74.88;;;27.83;;
75820;SDS011;64454;51.984;9.838;2022-12-10T01:01:20;72.60;;;28.42;;
75820;SDS011;64454;51.984;9.838;2022-12-10T01:03:51;74.00;;;26.85;;
75820;SDS011;64454;51.984;9.838;2022-12-10T01:06:21;73.57;;;27.02;;
75820;SDS011;64454;51.984;9.838;2022-12-10T01:08:51;76.43;;;27.35;;
75820;SDS011;64454;51.984;9.838;2022-12-10T01:11:21;74.72;;;27.27;;
75820;SDS011;64454;51.984;9.838;2022-12-10T01:13:52;71.82;;;27.20;;
75820;SDS011;64454;51.984;9.838;2022-12-10T01:16:20;67.43;;;27.27;;
75820;SDS011;64454;51.984;9.838;2022-12-10T01:18:48;79.72;;;28.63;;
75820;SDS011;64454;51.984;9.838;2022-12-10T01:21:18;68.70;;;25.90;;
75820;SDS011;64454;51.984;9.838;2022-12-10T01:23:49;70.75;;;27.02;;
75820;SDS011;64454;51.984;9.838;2022-12-10T01:26:19;82.00;;;29.08;;
75820;SDS011;64454;51.984;9.838;2022-12-10T01:28:48;80.43;;;28.80;;
75820;SDS011;64454;51.984;9.838;2022-12-10T01:31:17;90.50;;;29.38;;
75820;SDS011;64454;51.984;9.838;2022-12-10T01:33:47;77.28;;;27.17;;
75820;SDS011;64454;51.984;9.838;2022-12-10T01:36:17;75.93;;;27.17;;
75820;SDS011;64454;51.984;9.838;2022-12-10T01:38:47;84.60;;;27.20;;
75820;SDS011;64454;51.984;9.838;2022-12-10T01:41:16;75.63;;;26.92;;
75820;SDS011;64454;51.984;9.838;2022-12-10T01:43:51;68.18;;;27.15;;
75820;SDS011;64454;51.984;9.838;2022-12-10T01:46:24;76.00;;;26.98;;
75820;SDS011;64454;51.984;9.838;2022-12-10T01:48:54;77.55;;;29.23;;
75820;SDS011;64454;51.984;9.838;2022-12-10T01:51:23;92.95;;;29.05;;
75820;SDS011;64454;51.984;9.838;2022-12-10T01:53:54;86.03;;;28.50;;
75820;SDS011;64454;51.984;9.838;2022-12-10T01:56:22;69.50;;;27.13;;
75820;SDS011;64454;51.984;9.838;2022-12-10T01:58:50;72.68;;;27.98;;
75820;SDS011;64454;51.984;9.838;2022-12-10T02:01:22;77.25;;;28.38;;
75820;SDS011;64454;51.984;9.838;2022-12-10T02:04:00;80.10;;;27.83;;
75820;SDS011;64454;51.984;9.838;2022-12-10T02:06:45;78.97;;;27.65;;
75820;SDS011;64454;51.984;9.838;2022-12-10T02:09:23;70.90;;;27.17;;
75820;SDS011;64454;51.984;9.838;2022-12-10T02:12:02;81.43;;;29.75;;
75820;SDS011;64454;51.984;9.838;2022-12-10T02:14:39;78.25;;;27.95;;
75820;SDS011;64454;51.984;9.838;2022-12-10T02:17:19;81.63;;;26.65;;
75820;SDS011;64454;51.984;9.838;2022-12-10T02:20:03;69.82;;;27.67;;
75820;SDS011;64454;51.984;9.838;2022-12-10T02:22:38;79.30;;;28.27;;
75820;SDS011;64454;51.984;9.838;2022-12-10T02:25:08;62.50;;;25.45;;
75820;SDS011;64454;51.984;9.838;2022-12-10T02:27:42;73.90;;;26.83;;
75820;SDS011;64454;51.984;9.838;2022-12-10T02:30:18;62.28;;;24.80;;
75820;SDS011;64454;51.984;9.838;2022-12-10T02:32:46;69.47;;;25.60;;
75820;SDS011;64454;51.984;9.838;2022-12-10T02:35:17;76.63;;;26.42;;
75820;SDS011;64454;51.984;9.838;2022-12-10T02:37:51;62.63;;;25.80;;
75820;SDS011;64454;51.984;9.838;2022-12-10T02:40:26;72.63;;;27.45;;
75820;SDS011;64454;51.984;9.838;2022-12-10T02:42:58;72.40;;;26.38;;
75820;SDS011;64454;51.984;9.838;2022-12-10T02:45:27;67.78;;;24.95;;
75820;SDS011;64454;51.984;9.838;2022-12-10T02:47:58;67.68;;;25.38;;
75820;SDS011;64454;51.984;9.838;2022-12-10T02:50:28;71.93;;;27.45;;
75820;SDS011;64454;51.984;9.838;2022-12-10T02:52:55;70.07;;;23.57;;
75820;SDS011;64454;51.984;9.838;2022-12-10T02:55:22;60.15;;;24.88;;
75820;SDS011;64454;51.984;9.838;2022-12-10T02:57:56;60.90;;;23.02;;
75820;SDS011;64454;51.984;9.838;2022-12-10T03:00:39;59.88;;;22.92;;
75820;SDS011;64454;51.984;9.838;2022-12-10T03:03:21;62.20;;;25.05;;
75820;SDS011;64454;51.984;9.838;2022-12-10T03:06:02;66.67;;;23.43;;
75820;SDS011;64454;51.984;9.838;2022-12-10T03:08:39;63.65;;;24.05;;
75820;SDS011;64454;51.984;9.838;2022-12-10T03:11:12;54.90;;;22.27;;
75820;SDS011;64454;51.984;9.838;2022-12-10T03:13:43;47.28;;;20.60;;
75820;SDS011;64454;51.984;9.838;2022-12-10T03:16:20;53.03;;;21.85;;
75820;SDS011;64454;51.984;9.838;2022-12-10T03:18:51;57.45;;;23.23;;
75820;SDS011;64454;51.984;9.838;2022-12-10T03:21:23;54.03;;;22.48;;
75820;SDS011;64454;51.984;9.838;2022-12-10T03:23:54;75.30;;;23.52;;
75820;SDS011;64454;51.984;9.838;2022-12-10T03:26:21;59.92;;;23.80;;
75820;SDS011;64454;51.984;9.838;2022-12-10T03:28:51;60.80;;;23.95;;
75820;SDS011;64454;51.984;9.838;2022-12-10T03:31:25;54.63;;;21.90;;
75820;SDS011;64454;51.984;9.838;2022-12-10T03:33:53;53.65;;;21.60;;
75820;SDS011;64454;51.984;9.838;2022-12-10T03:36:20;53.55;;;22.83;;
75820;SDS011;64454;51.984;9.838;2022-12-10T03:38:50;54.88;;;21.38;;
75820;SDS011;64454;51.984;9.838;2022-12-10T03:41:18;58.13;;;22.52;;
75820;SDS011;64454;51.984;9.838;2022-12-10T03:43:51;59.87;;;22.83;;
75820;SDS011;64454;51.984;9.838;2022-12-10T03:46:21;51.42;;;21.50;;
75820;SDS011;64454;51.984;9.838;2022-12-10T03:48:51;52.30;;;21.37;;
75820;SDS011;64454;51.984;9.838;2022-12-10T03:51:18;56.78;;;21.23;;
75820;SDS011;64454;51.984;9.838;2022-12-10T03:53:45;48.55;;;20.48;;
75820;SDS011;64454;51.984;9.838;2022-12-10T03:56:13;43.83;;;20.08;;
75820;SDS011;64454;51.984;9.838;2022-12-10T03:58:40;48.30;;;20.42;;
75820;SDS011;64454;51.984;9.838;2022-12-10T04:01:07;45.28;;;19.98;;
75820;SDS011;64454;51.984;9.838;2022-12-10T04:03:34;48.63;;;20.98;;
75820;SDS011;64454;51.984;9.838;2022-12-10T04:06:04;43.70;;;19.13;;
75820;SDS011;64454;51.984;9.838;2022-12-10T04:08:34;44.20;;;19.73;;
75820;SDS011;64454;51.984;9.838;2022-12-10T04:11:02;42.85;;;19.52;;
75820;SDS011;64454;51.984;9.838;2022-12-10T04:13:31;46.13;;;19.30;;
75820;SDS011;64454;51.984;9.838;2022-12-10T04:16:16;39.07;;;18.33;;
75820;SDS011;64454;51.984;9.838;2022-12-10T04:18:52;39.47;;;16.70;;
75820;SDS011;64454;51.984;9.838;2022-12-10T04:21:21;36.63;;;16.27;;
75820;SDS011;64454;51.984;9.838;2022-12-10T04:24:06;32.90;;;16.25;;
75820;SDS011;64454;51.984;9.838;2022-12-10T04:26:52;34.05;;;16.83;;
75820;SDS011;64454;51.984;9.838;2022-12-10T04:29:21;34.08;;;16.35;;
75820;SDS011;64454;51.984;9.838;2022-12-10T04:31:49;34.15;;;17.30;;
75820;SDS011;64454;51.984;9.838;2022-12-10T04:34:17;31.88;;;16.42;;
75820;SDS011;64454;51.984;9.838;2022-12-10T04:36:46;31.15;;;15.40;;
75820;SDS011;64454;51.984;9.838;2022-12-10T04:39:13;32.80;;;15.63;;
75820;SDS011;64454;51.984;9.838;2022-12-10T04:41:41;29.70;;;15.02;;
75820;SDS011;64454;51.984;9.838;2022-12-10T04:44:11;29.05;;;14.98;;
75820;SDS011;64454;51.984;9.838;2022-12-10T04:46:38;26.92;;;13.38;;
75820;SDS011;64454;51.984;9.838;2022-12-10T04:49:05;21.88;;;12.40;;
75820;SDS011;64454;51.984;9.838;2022-12-10T04:51:33;23.77;;;13.02;;
75820;SDS011;64454;51.984;9.838;2022-12-10T04:54:01;26.17;;;14.13;;
75820;SDS011;64454;51.984;9.838;2022-12-10T04:56:30;28.52;;;15.90;;
75820;SDS011;64454;51.984;9.838;2022-12-10T04:58:57;28.20;;;14.73;;
75820;SDS011;64454;51.984;9.838;2022-12-10T05:01:25;28.85;;;15.57;;
75820;SDS011;64454;51.984;9.838;2022-12-10T05:03:53;29.35;;;15.35;;
75820;SDS011;64454;51.984;9.838;2022-12-10T05:06:24;32.83;;;16.08;;
75820;SDS011;64454;51.984;9.838;2022-12-10T05:08:51;32.60;;;15.50;;
75820;SDS011;64454;51.984;9.838;2022-12-10T05:11:20;31.30;;;15.90;;
75820;SDS011;64454;51.984;9.838;2022-12-10T05:13:49;34.67;;;16.77;;
75820;SDS011;64454;51.984;9.838;2022-12-10T05:16:17;34.50;;;17.08;;
75820;SDS011;64454;51.984;9.838;2022-12-10T05:18:46;35.58;;;17.10;;
75820;SDS011;64454;51.984;9.838;2022-12-10T05:21:15;37.15;;;17.50;;
75820;SDS011;64454;51.984;9.838;2022-12-10T05:23:44;32.60;;;16.80;;
75820;SDS011;64454;51.984;9.838;2022-12-10T05:26:14;32.05;;;16.55;;
75820;SDS011;64454;51.984;9.838;2022-12-10T05:28:46;32.70;;;17.10;;
75820;SDS011;64454;51.984;9.838;2022-12-10T05:31:16;33.10;;;15.60;;
75820;SDS011;64454;51.984;9.838;2022-12-10T05:33:46;33.60;;;15.10;;
75820;SDS011;64454;51.984;9.838;2022-12-10T05:36:15;34.30;;;15.50;;
75820;SDS011;64454;51.984;9.838;2022-12-10T05:38:45;33.78;;;16.80;;
75820;SDS011;64454;51.984;9.838;2022-12-10T05:41:13;34.17;;;15.32;;
75820;SDS011;64454;51.984;9.838;2022-12-10T05:43:43;35.47;;;15.90;;
75820;SDS011;64454;51.984;9.838;2022-12-10T05:46:13;39.58;;;16.10;;
75820;SDS011;64454;51.984;9.838;2022-12-10T05:48:43;36.83;;;17.15;;
75820;SDS011;64454;51.984;9.838;2022-12-10T05:51:12;36.08;;;16.17;;
75820;SDS011;64454;51.984;9.838;2022-12-10T05:53:41;38.00;;;15.57;;
75820;SDS011;64454;51.984;9.838;2022-12-10T05:56:08;33.28;;;15.57;;
75820;SDS011;64454;51.984;9.838;2022-12-10T05:58:37;34.13;;;15.50;;
75820;SDS011;64454;51.984;9.838;2022-12-10T06:01:08;36.67;;;15.85;;
75820;SDS011;64454;51.984;9.838;2022-12-10T06:03:38;37.65;;;16.00;;
75820;SDS011;64454;51.984;9.838;2022-12-10T06:06:25;35.00;;;17.02;;
75820;SDS011;64454;51.984;9.838;2022-12-10T06:09:14;36.03;;;14.80;;
75820;SDS011;64454;51.984;9.838;2022-12-10T06:12:02;45.97;;;17.30;;
75820;SDS011;64454;51.984;9.838;2022-12-10T06:14:49;42.70;;;16.43;;
75820;SDS011;64454;51.984;9.838;2022-12-10T06:17:17;38.35;;;16.90;;
75820;SDS011;64454;51.984;9.838;2022-12-10T06:19:44;34.70;;;15.65;;
75820;SDS011;64454;51.984;9.838;2022-12-10T06:22:11;33.65;;;15.30;;
75820;SDS011;64454;51.984;9.838;2022-12-10T06:24:38;35.00;;;16.87;;
75820;SDS011;64454;51.984;9.838;2022-12-10T06:27:05;36.85;;;15.02;;
75820;SDS011;64454;51.984;9.838;2022-12-10T06:29:32;33.28;;;15.02;;
75820;SDS011;64454;51.984;9.838;2022-12-10T06:31:59;38.85;;;16.65;;
75820;SDS011;64454;51.984;9.838;2022-12-10T06:34:27;38.60;;;15.75;;
75820;SDS011;64454;51.984;9.838;2022-12-10T06:36:54;37.40;;;15.25;;
75820;SDS011;64454;51.984;9.838;2022-12-10T06:39:21;36.45;;;16.02;;
75820;SDS011;64454;51.984;9.838;2022-12-10T06:41:48;34.08;;;14.90;;
75820;SDS011;64454;51.984;9.838;2022-12-10T06:44:15;34.50;;;15.30;;
75820;SDS011;64454;51.984;9.838;2022-12-10T06:46:42;32.17;;;15.57;;
75820;SDS011;64454;51.984;9.838;2022-12-10T06:49:09;35.25;;;15.70;;
75820;SDS011;64454;51.984;9.838;2022-12-10T06:51:37;35.33;;;15.60;;
75820;SDS011;64454;51.984;9.838;2022-12-10T06:54:04;34.78;;;15.52;;
75820;SDS011;64454;51.984;9.838;2022-12-10T06:56:31;34.95;;;14.55;;
75820;SDS011;64454;51.984;9.838;2022-12-10T06:58:58;29.97;;;13.90;;
75820;SDS011;64454;51.984;9.838;2022-12-10T07:01:25;30.10;;;14.32;;
75820;SDS011;64454;51.984;9.838;2022-12-10T07:03:52;30.25;;;13.00;;
75820;SDS011;64454;51.984;9.838;2022-12-10T07:06:22;33.73;;;13.73;;
75820;SDS011;64454;51.984;9.838;2022-12-10T07:08:52;31.35;;;14.40;;
75820;SDS011;64454;51.984;9.838;2022-12-10T07:11:20;28.50;;;13.40;;
75820;SDS011;64454;51.984;9.838;2022-12-10T07:13:50;25.65;;;12.60;;
75820;SDS011;64454;51.984;9.838;2022-12-10T07:16:18;34.03;;;13.05;;
75820;SDS011;64454;51.984;9.838;2022-12-10T07:18:49;33.30;;;15.20;;
75820;SDS011;64454;51.984;9.838;2022-12-10T07:21:17;30.88;;;13.20;;
75820;SDS011;64454;51.984;9.838;2022-12-10T07:23:47;30.80;;;13.90;;
75820;SDS011;64454;51.984;9.838;2022-12-10T07:26:16;29.52;;;13.00;;
75820;SDS011;64454;51.984;9.838;2022-12-10T07:28:43;28.48;;;13.38;;
75820;SDS011;64454;51.984;9.838;2022-12-10T07:31:10;30.63;;;13.27;;
75820;SDS011;64454;51.984;9.838;2022-12-10T07:33:37;27.00;;;14.00;;
75820;SDS011;64454;51.984;9.838;2022-12-10T07:36:04;33.17;;;13.70;;
75820;SDS011;64454;51.984;9.838;2022-12-10T07:38:33;27.58;;;13.82;;
75820;SDS011;64454;51.984;9.838;2022-12-10T07:41:02;27.02;;;12.52;;
75820;SDS011;64454;51.984;9.838;2022-12-10T07:43:32;30.15;;;13.32;;
75820;SDS011;64454;51.984;9.838;2022-12-10T07:46:02;27.63;;;12.85;;
75820;SDS011;64454;51.984;9.838;2022-12-10T07:48:30;28.45;;;13.57;;
75820;SDS011;64454;51.984;9.838;2022-12-10T07:50:57;32.35;;;14.18;;
75820;SDS011;64454;51.984;9.838;2022-12-10T07:53:24;33.38;;;14.35;;
75820;SDS011;64454;51.984;9.838;2022-12-10T07:55:51;30.75;;;12.90;;
75820;SDS011;64454;51.984;9.838;2022-12-10T07:58:18;30.40;;;12.30;;
75820;SDS011;64454;51.984;9.838;2022-12-10T08:00:46;28.67;;;12.75;;
75820;SDS011;64454;51.984;9.838;2022-12-10T08:03:13;26.95;;;12.40;;
75820;SDS011;64454;51.984;9.838;2022-12-10T08:05:40;34.22;;;13.80;;
75820;SDS011;64454;51.984;9.838;2022-12-10T08:08:07;31.38;;;13.10;;
75820;SDS011;64454;51.984;9.838;2022-12-10T08:10:34;27.90;;;13.13;;
75820;SDS011;64454;51.984;9.838;2022-12-10T08:13:01;27.77;;;14.05;;
75820;SDS011;64454;51.984;9.838;2022-12-10T08:15:30;26.20;;;12.40;;
75820;SDS011;64454;51.984;9.838;2022-12-10T08:17:58;28.45;;;12.73;;
75820;SDS011;64454;51.984;9.838;2022-12-10T08:20:25;24.58;;;12.15;;
75820;SDS011;64454;51.984;9.838;2022-12-10T08:22:52;29.90;;;14.17;;
75820;SDS011;64454;51.984;9.838;2022-12-10T08:25:19;25.30;;;11.60;;
75820;SDS011;64454;51.984;9.838;2022-12-10T08:27:46;23.35;;;12.02;;
75820;SDS011;64454;51.984;9.838;2022-12-10T08:30:13;30.58;;;12.98;;
75820;SDS011;64454;51.984;9.838;2022-12-10T08:32:40;27.38;;;11.95;;
75820;SDS011;64454;51.984;9.838;2022-12-10T08:35:08;22.92;;;11.20;;
75820;SDS011;64454;51.984;9.838;2022-12-10T08:37:35;25.92;;;12.52;;
75820;SDS011;64454;51.984;9.838;2022-12-10T08:40:02;24.02;;;12.52;;
75820;SDS011;64454;51.984;9.838;2022-12-10T08:42:30;26.85;;;11.73;;
75820;SDS011;64454;51.984;9.838;2022-12-10T08:44:57;24.93;;;12.27;;
75820;SDS011;64454;51.984;9.838;2022-12-10T08:47:24;25.90;;;12.57;;
75820;SDS011;64454;51.984;9.838;2022-12-10T08:49:51;27.05;;;12.70;;
75820;SDS011;64454;51.984;9.838;2022-12-10T08:52:19;21.63;;;11.75;;
75820;SDS011;64454;51.984;9.838;2022-12-10T08:54:46;29.48;;;12.57;;
75820;SDS011;64454;51.984;9.838;2022-12-10T08:57:13;24.73;;;11.60;;
75820;SDS011;64454;51.984;9.838;2022-12-10T08:59:40;24.27;;;12.35;;
75820;SDS011;64454;51.984;9.838;2022-12-10T09:02:07;25.17;;;11.68;;
75820;SDS011;64454;51.984;9.838;2022-12-10T09:04:37;25.83;;;13.07;;
75820;SDS011;64454;51.984;9.838;2022-12-10T09:07:04;23.67;;;11.10;;
75820;SDS011;64454;51.984;9.838;2022-12-10T09:09:33;23.83;;;11.65;;
75820;SDS011;64454;51.984;9.838;2022-12-10T09:12:00;24.92;;;12.40;;
75820;SDS011;64454;51.984;9.838;2022-12-10T09:14:26;25.63;;;12.68;;
75820;SDS011;64454;51.984;9.838;2022-12-10T09:16:53;25.60;;;12.70;;
75820;SDS011;64454;51.984;9.838;2022-12-10T09:19:20;22.42;;;12.05;;
75820;SDS011;64454;51.984;9.838;2022-12-10T09:21:47;26.38;;;12.98;;
75820;SDS011;64454;51.984;9.838;2022-12-10T09:24:14;24.55;;;11.85;;
75820;SDS011;64454;51.984;9.838;2022-12-10T09:26:42;26.63;;;14.02;;
75820;SDS011;64454;51.984;9.838;2022-12-10T09:29:09;27.17;;;12.88;;
75820;SDS011;64454;51.984;9.838;2022-12-10T09:31:36;31.27;;;13.68;;
75820;SDS011;64454;51.984;9.838;2022-12-10T09:34:03;26.42;;;13.48;;
75820;SDS011;64454;51.984;9.838;2022-12-10T09:36:30;28.88;;;14.65;;
75820;SDS011;64454;51.984;9.838;2022-12-10T09:38:57;28.00;;;15.07;;
75820;SDS011;64454;51.984;9.838;2022-12-10T09:41:36;31.27;;;16.17;;
75820;SDS011;64454;51.984;9.838;2022-12-10T09:44:33;39.90;;;20.65;;
75820;SDS011;64454;51.984;9.838;2022-12-10T09:47:13;30.33;;;15.20;;
75820;SDS011;64454;51.984;9.838;2022-12-10T09:49:44;26.85;;;13.68;;
75820;SDS011;64454;51.984;9.838;2022-12-10T09:52:26;29.02;;;14.50;;
75820;SDS011;64454;51.984;9.838;2022-12-10T09:55:08;31.73;;;14.20;;
75820;SDS011;64454;51.984;9.838;2022-12-10T09:57:42;31.55;;;15.00;;
75820;SDS011;64454;51.984;9.838;2022-12-10T10:00:18;29.58;;;14.50;;
75820;SDS011;64454;51.984;9.838;2022-12-10T10:02:51;26.05;;;14.10;;
75820;SDS011;64454;51.984;9.838;2022-12-10T10:05:24;29.35;;;13.65;;
75820;SDS011;64454;51.984;9.838;2022-12-10T10:07:55;29.27;;;14.23;;
75820;SDS011;64454;51.984;9.838;2022-12-10T10:10:27;28.45;;;15.20;;
75820;SDS011;64454;51.984;9.838;2022-12-10T10:12:58;29.60;;;14.80;;
75820;SDS011;64454;51.984;9.838;2022-12-10T10:15:39;24.38;;;13.93;;
75820;SDS011;64454;51.984;9.838;2022-12-10T10:18:11;25.80;;;12.95;;
75820;SDS011;64454;51.984;9.838;2022-12-10T10:20:47;33.00;;;14.00;;
75820;SDS011;64454;51.984;9.838;2022-12-10T10:23:15;30.38;;;14.00;;
75820;SDS011;64454;51.984;9.838;2022-12-10T10:25:42;30.40;;;13.50;;
75820;SDS011;64454;51.984;9.838;2022-12-10T10:28:20;29.20;;;13.68;;
75820;SDS011;64454;51.984;9.838;2022-12-10T10:30:49;28.02;;;13.10;;
75820;SDS011;64454;51.984;9.838;2022-12-10T10:33:18;27.73;;;13.50;;
75820;SDS011;64454;51.984;9.838;2022-12-10T10:35:46;29.10;;;13.75;;
75820;SDS011;64454;51.984;9.838;2022-12-10T10:38:19;24.98;;;13.52;;
75820;SDS011;64454;51.984;9.838;2022-12-10T10:40:50;27.25;;;14.18;;
75820;SDS011;64454;51.984;9.838;2022-12-10T10:43:22;28.07;;;14.07;;
75820;SDS011;64454;51.984;9.838;2022-12-10T10:45:53;23.90;;;13.07;;
75820;SDS011;64454;51.984;9.838;2022-12-10T10:48:26;25.42;;;13.20;;
75820;SDS011;64454;51.984;9.838;2022-12-10T10:50:55;25.92;;;13.40;;
75820;SDS011;64454;51.984;9.838;2022-12-10T10:53:39;27.52;;;13.10;;
75820;SDS011;64454;51.984;9.838;2022-12-10T10:56:09;22.85;;;12.38;;
75820;SDS011;64454;51.984;9.838;2022-12-10T10:58:49;23.95;;;12.40;;
75820;SDS011;64454;51.984;9.838;2022-12-10T11:01:23;28.17;;;13.43;;
75820;SDS011;64454;51.984;9.838;2022-12-10T11:03:53;30.92;;;14.40;;
75820;SDS011;64454;51.984;9.838;2022-12-10T11:06:24;29.38;;;14.07;;
75820;SDS011;64454;51.984;9.838;2022-12-10T11:08:54;24.73;;;13.68;;
75820;SDS011;64454;51.984;9.838;2022-12-10T11:11:25;24.90;;;13.05;;
75820;SDS011;64454;51.984;9.838;2022-12-10T11:14:13;26.95;;;13.20;;
75820;SDS011;64454;51.984;9.838;2022-12-10T11:16:49;25.25;;;13.35;;
75820;SDS011;64454;51.984;9.838;2022-12-10T11:19:18;25.70;;;13.25;;
75820;SDS011;64454;51.984;9.838;2022-12-10T11:21:47;26.77;;;13.07;;
75820;SDS011;64454;51.984;9.838;2022-12-10T11:24:16;26.42;;;13.35;;
75820;SDS011;64454;51.984;9.838;2022-12-10T11:26:48;28.90;;;14.80;;
75820;SDS011;64454;51.984;9.838;2022-12-10T11:29:45;26.50;;;13.90;;
75820;SDS011;64454;51.984;9.838;2022-12-10T11:32:26;23.95;;;13.00;;
75820;SDS011;64454;51.984;9.838;2022-12-10T11:35:13;27.52;;;13.85;;
75820;SDS011;64454;51.984;9.838;2022-12-10T11:37:49;27.42;;;13.88;;
75820;SDS011;64454;51.984;9.838;2022-12-10T11:40:28;24.77;;;13.27;;
75820;SDS011;64454;51.984;9.838;2022-12-10T11:43:08;29.13;;;14.83;;
75820;SDS011;64454;51.984;9.838;2022-12-10T11:46:17;30.17;;;16.50;;
75820;SDS011;64454;51.984;9.838;2022-12-10T11:49:09;49.47;;;28.48;;
75820;SDS011;64454;51.984;9.838;2022-12-10T11:51:51;26.15;;;13.90;;
75820;SDS011;64454;51.984;9.838;2022-12-10T11:54:33;30.30;;;15.88;;
75820;SDS011;64454;51.984;9.838;2022-12-10T11:57:30;23.27;;;12.48;;
75820;SDS011;64454;51.984;9.838;2022-12-10T12:00:14;22.45;;;12.77;;
75820;SDS011;64454;51.984;9.838;2022-12-10T12:02:58;26.13;;;12.00;;
75820;SDS011;64454;51.984;9.838;2022-12-10T12:05:52;23.48;;;12.15;;
75820;SDS011;64454;51.984;9.838;2022-12-10T12:08:38;24.20;;;13.27;;
75820;SDS011;64454;51.984;9.838;2022-12-10T12:11:20;28.58;;;14.40;;
75820;SDS011;64454;51.984;9.838;2022-12-10T12:14:22;27.73;;;13.48;;
75820;SDS011;64454;51.984;9.838;2022-12-10T12:16:59;24.08;;;12.90;;
75820;SDS011;64454;51.984;9.838;2022-12-10T12:19:36;26.05;;;13.05;;
75820;SDS011;64454;51.984;9.838;2022-12-10T12:22:08;32.20;;;15.63;;
75820;SDS011;64454;51.984;9.838;2022-12-10T12:24:41;26.38;;;14.40;;
75820;SDS011;64454;51.984;9.838;2022-12-10T12:27:14;28.73;;;14.80;;
75820;SDS011;64454;51.984;9.838;2022-12-10T12:29:58;31.43;;;16.27;;
75820;SDS011;64454;51.984;9.838;2022-12-10T12:32:40;34.30;;;16.08;;
75820;SDS011;64454;51.984;9.838;2022-12-10T12:35:22;33.08;;;15.07;;
75820;SDS011;64454;51.984;9.838;2022-12-10T12:38:03;35.70;;;15.98;;
75820;SDS011;64454;51.984;9.838;2022-12-10T12:40:56;31.73;;;15.50;;
75820;SDS011;64454;51.984;9.838;2022-12-10T12:43:32;33.20;;;15.98;;
75820;SDS011;64454;51.984;9.838;2022-12-10T12:46:11;30.60;;;15.38;;
75820;SDS011;64454;51.984;9.838;2022-12-10T12:48:47;27.15;;;14.00;;
75820;SDS011;64454;51.984;9.838;2022-12-10T12:51:24;36.20;;;15.77;;
75820;SDS011;64454;51.984;9.838;2022-12-10T12:53:58;34.22;;;16.25;;
75820;SDS011;64454;51.984;9.838;2022-12-10T12:56:27;31.33;;;14.93;;
75820;SDS011;64454;51.984;9.838;2022-12-10T12:59:19;34.80;;;15.80;;
75820;SDS011;64454;51.984;9.838;2022-12-10T13:02:02;33.13;;;15.73;;
75820;SDS011;64454;51.984;9.838;2022-12-10T13:04:47;30.52;;;15.05;;
75820;SDS011;64454;51.984;9.838;2022-12-10T13:07:28;29.52;;;15.40;;
75820;SDS011;64454;51.984;9.838;2022-12-10T13:10:17;34.40;;;15.37;;
75820;SDS011;64454;51.984;9.838;2022-12-10T13:12:51;30.50;;;16.13;;
75820;SDS011;64454;51.984;9.838;2022-12-10T13:15:43;29.33;;;14.20;;
75820;SDS011;64454;51.984;9.838;2022-12-10T13:18:19;29.27;;;15.03;;
75820;SDS011;64454;51.984;9.838;2022-12-10T13:24:08;31.52;;;15.20;;
75820;SDS011;64454;51.984;9.838;2022-12-10T13:26:40;31.40;;;16.10;;
75820;SDS011;64454;51.984;9.838;2022-12-10T13:29:28;29.10;;;15.18;;
75820;SDS011;64454;51.984;9.838;2022-12-10T13:32:13;33.38;;;17.80;;
75820;SDS011;64454;51.984;9.838;2022-12-10T13:34:42;28.63;;;15.47;;
75820;SDS011;64454;51.984;9.838;2022-12-10T13:37:17;29.98;;;15.32;;
75820;SDS011;64454;51.984;9.838;2022-12-10T13:40:02;33.28;;;16.08;;
75820;SDS011;64454;51.984;9.838;2022-12-10T13:42:54;30.40;;;16.10;;
75820;SDS011;64454;51.984;9.838;2022-12-10T13:45:42;28.80;;;14.98;;
75820;SDS011;64454;51.984;9.838;2022-12-10T13:48:16;30.30;;;14.68;;
75820;SDS011;64454;51.984;9.838;2022-12-10T13:51:14;31.20;;;14.70;;
75820;SDS011;64454;51.984;9.838;2022-12-10T13:57:37;28.33;;;15.30;;
75820;SDS011;64454;51.984;9.838;2022-12-10T14:00:38;28.77;;;15.40;;
75820;SDS011;64454;51.984;9.838;2022-12-10T14:03:27;29.57;;;15.83;;
75820;SDS011;64454;51.984;9.838;2022-12-10T14:06:27;26.88;;;14.05;;
75820;SDS011;64454;51.984;9.838;2022-12-10T14:09:03;28.13;;;15.40;;
75820;SDS011;64454;51.984;9.838;2022-12-10T14:11:38;28.10;;;15.70;;
75820;SDS011;64454;51.984;9.838;2022-12-10T14:14:15;29.27;;;16.17;;
75820;SDS011;64454;51.984;9.838;2022-12-10T14:16:51;31.13;;;16.63;;
75820;SDS011;64454;51.984;9.838;2022-12-10T14:19:18;32.03;;;17.38;;
75820;SDS011;64454;51.984;9.838;2022-12-10T14:21:54;32.95;;;17.80;;
75820;SDS011;64454;51.984;9.838;2022-12-10T14:24:26;34.72;;;17.92;;
75820;SDS011;64454;51.984;9.838;2022-12-10T14:26:57;33.50;;;17.15;;
75820;SDS011;64454;51.984;9.838;2022-12-10T14:29:28;38.00;;;17.90;;
75820;SDS011;64454;51.984;9.838;2022-12-10T14:31:55;33.03;;;17.00;;
75820;SDS011;64454;51.984;9.838;2022-12-10T14:34:24;31.80;;;17.00;;
75820;SDS011;64454;51.984;9.838;2022-12-10T14:36:54;36.28;;;18.52;;
75820;SDS011;64454;51.984;9.838;2022-12-10T14:39:26;34.83;;;17.63;;
75820;SDS011;64454;51.984;9.838;2022-12-10T14:41:55;35.22;;;16.85;;
75820;SDS011;64454;51.984;9.838;2022-12-10T14:44:25;31.67;;;16.92;;
75820;SDS011;64454;51.984;9.838;2022-12-10T14:47:04;33.60;;;17.08;;
75820;SDS011;64454;51.984;9.838;2022-12-10T14:49:38;32.33;;;16.43;;
75820;SDS011;64454;51.984;9.838;2022-12-10T14:52:09;32.85;;;16.88;;
75820;SDS011;64454;51.984;9.838;2022-12-10T14:54:43;36.35;;;18.23;;
75820;SDS011;64454;51.984;9.838;2022-12-10T14:57:13;30.52;;;17.00;;
75820;SDS011;64454;51.984;9.838;2022-12-10T14:59:46;32.13;;;16.42;;